Hilltop Mall, California
Current Conditions -  °F | °C
As of 9:53 PM on Sunday 19 Oct 2014 (Local Time) from KCCR Reporting Station
Clear Clear  
Wind Chill: 62°   Ceiling: Unl
Heat Index: 62°   Visibility: 10mi
Dew Point: 56°   Wind: 6mph
Humidity: 80%   Direction: 180°S
Pressure: 29.89"   Gusts: NA
Location:  37.979°N, 122.336°W
Report Text: KCCR 200453Z 18005KT 10SM CLR 17/13 A2989 RMK AO2 SLP108 T01670133
Loading
Personal Weather Stations






























Interactive Weather Map
Tropical Storm Tracking
New forecast layout! Learn more

10-Day Weather Forecast

Advertisements
Track Severe Weather on mobile